Terminal Aerodrome Forecast
Issued by NWS Atlanta, GA

Home | Current Version | Previous Version | Text Only | Print | Product List | Glossary On
Versions: 1 2 3 4 5 6 7 8 9 10 11 12 13 14 15 16 17 18 19 20 21 22 23 24 25 26 27 28 29
000
FTAK31 PAJN 151148
TAFAHN
TAF
PAHN 151148Z 1512/1612 10010G20KT P6SM -SHRA BKN014 BKN020 OVC030
     FM151800 11009KT P6SM VCSH SCT035 OVC050
     FM160000 10009G19KT P6SM VCSH OVC050
     FM160600 10010G20KT 6SM -RA BR BKN020 OVC030
      AMD LTD TO CLD VIS AND WIND=

USA.gov is the U.S. government's official web portal to all federal, state and local government web resources and services.